createdAt,value
2018-11-11T00:01:31.136Z,17.33
2018-11-11T00:04:03.251Z,17.40
2018-11-11T00:06:35.383Z,19.37
2018-11-11T00:09:08.553Z,21.37
2018-11-11T00:11:40.823Z,19.10
2018-11-11T00:14:12.635Z,18.13
2018-11-11T00:16:44.468Z,19.23
2018-11-11T00:19:16.806Z,18.50
2018-11-11T00:21:49.203Z,19.97
2018-11-11T00:24:21.317Z,20.30
2018-11-11T00:26:53.350Z,18.37
2018-11-11T00:29:25.609Z,17.30
2018-11-11T00:31:57.380Z,18.57
2018-11-11T00:34:29.116Z,17.53
2018-11-11T00:37:00.898Z,17.53
2018-11-11T00:39:32.729Z,18.83
2018-11-11T00:42:04.995Z,17.43
2018-11-11T00:44:37.022Z,17.67
2018-11-11T00:47:09.071Z,18.53
2018-11-11T00:49:41.246Z,17.87
2018-11-11T00:52:13.442Z,19.17
2018-11-11T00:54:45.478Z,17.60
2018-11-11T00:57:17.682Z,19.23
2018-11-11T00:59:49.804Z,16.60
2018-11-11T01:02:21.835Z,17.40
2018-11-11T01:04:54.698Z,18.40
2018-11-11T01:07:26.649Z,17.10
2018-11-11T01:09:58.449Z,18.53
2018-11-11T01:12:30.260Z,16.93
2018-11-11T01:15:02.173Z,17.77
2018-11-11T01:17:34.237Z,18.17
2018-11-11T01:20:06.767Z,17.80
2018-11-11T01:22:38.999Z,16.33
2018-11-11T01:25:13.461Z,19.10
2018-11-11T01:27:45.563Z,19.37
2018-11-11T01:30:17.789Z,17.67
2018-11-11T01:32:49.540Z,16.90
2018-11-11T01:35:21.490Z,17.93
2018-11-11T01:37:53.404Z,17.80
2018-11-11T01:40:25.329Z,19.37
2018-11-11T01:43:00.759Z,18.33
2018-11-11T01:45:34.062Z,17.20
2018-11-11T01:48:06.051Z,18.10
2018-11-11T01:50:37.826Z,18.80
2018-11-11T01:53:10.014Z,18.70
2018-11-11T01:55:41.953Z,18.53
2018-11-11T01:58:13.826Z,17.50
2018-11-11T02:00:45.672Z,19.20
2018-11-11T02:03:17.434Z,18.67
2018-11-11T02:05:49.210Z,19.70
2018-11-11T02:08:20.962Z,18.03
2018-11-11T02:10:52.715Z,20.20
2018-11-11T02:13:24.456Z,18.80
2018-11-11T02:15:56.674Z,19.90
2018-11-11T02:18:28.474Z,19.43
2018-11-11T02:21:00.624Z,17.10
2018-11-11T02:23:32.658Z,20.80
2018-11-11T02:26:04.724Z,19.67
2018-11-11T02:28:36.528Z,19.67
2018-11-11T02:31:08.588Z,19.17
2018-11-11T02:33:41.334Z,20.40
2018-11-11T02:36:13.214Z,21.10
2018-11-11T02:38:45.131Z,19.30
2018-11-11T02:41:16.956Z,20.23
2018-11-11T02:43:48.889Z,18.43
2018-11-11T02:46:20.669Z,19.03
2018-11-11T02:48:53.632Z,18.17
2018-11-11T02:51:25.597Z,19.13
2018-11-11T02:53:57.389Z,20.53
2018-11-11T02:56:29.137Z,18.40
2018-11-11T02:59:01.107Z,20.40
2018-11-11T03:01:33.089Z,18.20
2018-11-11T03:04:05.175Z,17.63
2018-11-11T03:06:36.997Z,18.30
2018-11-11T03:09:12.506Z,21.00
2018-11-11T03:11:44.204Z,17.97
2018-11-11T03:14:16.192Z,17.80
2018-11-11T03:16:48.166Z,17.70
2018-11-11T03:19:20.005Z,18.77
2018-11-11T03:21:52.082Z,19.13
2018-11-11T03:24:24.065Z,19.97
2018-11-11T03:26:55.757Z,17.77
2018-11-11T03:29:27.502Z,21.33
2018-11-11T03:31:59.473Z,19.80
2018-11-11T03:34:31.544Z,18.07
2018-11-11T03:37:03.781Z,19.17
2018-11-11T03:39:36.877Z,18.63
2018-11-11T03:42:08.711Z,19.77
2018-11-11T03:44:40.597Z,18.90
2018-11-11T03:47:12.717Z,18.07
2018-11-11T03:49:44.441Z,18.70
2018-11-11T03:52:16.365Z,19.50
2018-11-11T03:54:48.176Z,20.77
2018-11-11T03:57:20.068Z,19.20
2018-11-11T03:59:52.153Z,19.73
2018-11-11T04:02:24.161Z,19.97
2018-11-11T04:04:56.157Z,18.30
2018-11-11T04:07:28.154Z,18.97
2018-11-11T04:10:00.117Z,19.97
2018-11-11T04:12:32.160Z,18.70
2018-11-11T04:15:03.856Z,19.03
2018-11-11T04:17:36.183Z,17.93
2018-11-11T04:20:09.013Z,21.03
2018-11-11T04:22:40.850Z,17.87
2018-11-11T04:25:13.669Z,20.17
2018-11-11T04:27:45.856Z,18.90
2018-11-11T04:30:17.885Z,18.40
2018-11-11T04:32:49.941Z,19.03
2018-11-11T04:35:22.710Z,19.13
2018-11-11T04:37:54.583Z,20.57
2018-11-11T04:40:26.817Z,17.50
2018-11-11T04:42:58.649Z,19.73
2018-11-11T04:45:30.511Z,19.37
2018-11-11T04:48:02.625Z,19.77
2018-11-11T04:50:34.385Z,17.57
2018-11-11T04:53:06.414Z,18.83
2018-11-11T04:55:39.343Z,19.27
2018-11-11T04:58:11.630Z,18.23
2018-11-11T05:00:43.752Z,19.83
2018-11-11T05:03:16.520Z,18.70
2018-11-11T05:05:48.755Z,17.30
2018-11-11T05:08:20.812Z,18.27
2018-11-11T05:10:52.892Z,18.80
2018-11-11T05:13:24.940Z,19.30
2018-11-11T05:15:56.901Z,18.50
2018-11-11T05:18:28.875Z,16.50
2018-11-11T05:21:00.887Z,16.80
2018-11-11T05:23:32.895Z,19.20
2018-11-11T05:26:05.029Z,18.20
2018-11-11T05:29:40.263Z,18.80
2018-11-11T05:32:12.300Z,15.60
2018-11-11T05:34:44.185Z,16.17
2018-11-11T05:37:16.240Z,17.03
2018-11-11T05:39:48.232Z,16.27
2018-11-11T05:42:20.914Z,15.77
2018-11-11T05:44:52.721Z,16.90
2018-11-11T05:47:24.625Z,18.07
2018-11-11T05:49:56.738Z,16.93
2018-11-11T05:52:28.944Z,16.63
2018-11-11T05:55:00.940Z,15.43
2018-11-11T05:57:33.009Z,15.23
2018-11-11T06:00:05.296Z,15.50
2018-11-11T06:02:37.099Z,15.90
2018-11-11T06:05:10.508Z,16.97
2018-11-11T06:07:42.564Z,14.97
2018-11-11T06:10:15.511Z,15.60
2018-11-11T06:12:47.396Z,16.07
2018-11-11T06:15:19.358Z,15.80
2018-11-11T06:17:51.104Z,15.77
2018-11-11T06:20:23.206Z,15.40
2018-11-11T06:22:55.399Z,15.50
2018-11-11T06:25:27.600Z,14.67
2018-11-11T06:27:59.509Z,14.50
2018-11-11T06:30:31.437Z,15.13
2018-11-11T06:33:03.544Z,16.43
2018-11-11T06:35:35.649Z,16.77
2018-11-11T06:38:06.880Z,15.30
2018-11-11T06:40:38.977Z,16.27
2018-11-11T06:43:10.833Z,15.23
2018-11-11T06:45:42.601Z,14.00
2018-11-11T06:48:14.819Z,15.47
2018-11-11T06:50:46.878Z,16.77
2018-11-11T06:53:18.855Z,15.20
2018-11-11T06:55:50.861Z,16.00
2018-11-11T06:58:22.835Z,15.43
2018-11-11T07:00:54.653Z,16.60
2018-11-11T07:03:36.948Z,17.50
2018-11-11T07:06:09.053Z,15.70
2018-11-11T07:08:41.046Z,16.77
2018-11-11T07:11:13.084Z,16.10
2018-11-11T07:13:45.070Z,16.03
2018-11-11T07:16:16.862Z,14.80
2018-11-11T07:18:49.280Z,17.40
2018-11-11T07:21:21.384Z,15.50
2018-11-11T07:23:53.705Z,16.10
2018-11-11T07:26:25.750Z,15.70
2018-11-11T07:28:57.975Z,16.50
2018-11-11T07:31:29.993Z,16.70
2018-11-11T07:34:01.963Z,15.57
2018-11-11T07:36:33.809Z,16.23
2018-11-11T07:39:08.886Z,17.73
2018-11-11T07:41:40.745Z,17.40
2018-11-11T07:44:14.271Z,15.97
2018-11-11T07:47:01.567Z,16.03
2018-11-11T07:49:57.553Z,17.53
2018-11-11T07:52:53.709Z,17.20
2018-11-11T07:55:29.155Z,16.47
2018-11-11T07:58:05.709Z,16.20
2018-11-11T08:00:38.245Z,16.13
2018-11-11T08:03:10.989Z,14.80
2018-11-11T08:05:43.042Z,17.50
2018-11-11T08:08:15.024Z,15.10
2018-11-11T08:10:57.184Z,16.00
2018-11-11T08:13:30.004Z,15.43
2018-11-11T08:16:02.710Z,13.80
2018-11-11T08:18:34.827Z,13.10
2018-11-11T08:21:06.912Z,13.00
2018-11-11T08:23:38.886Z,15.73
2018-11-11T08:26:11.069Z,13.23
2018-11-11T08:28:43.249Z,13.50
2018-11-11T08:31:16.103Z,13.47
2018-11-11T08:33:48.014Z,15.17
2018-11-11T08:36:19.949Z,12.27
2018-11-11T08:38:52.080Z,11.93
2018-11-11T08:41:25.803Z,12.73
2018-11-11T08:44:01.477Z,13.57
2018-11-11T08:46:34.359Z,12.13
2018-11-11T08:49:07.738Z,12.20
2018-11-11T08:51:41.283Z,13.67
2018-11-11T08:54:13.563Z,12.10
2018-11-11T08:56:45.835Z,13.10
2018-11-11T08:59:17.915Z,13.03
2018-11-11T09:01:50.134Z,13.53
2018-11-11T09:04:22.297Z,10.40
2018-11-11T09:06:54.624Z,10.03
2018-11-11T09:09:26.987Z,10.83
2018-11-11T09:12:00.011Z,11.93
2018-11-11T09:14:32.204Z,10.57
2018-11-11T09:17:04.470Z,10.83
2018-11-11T09:19:37.752Z,10.50
2018-11-11T09:22:10.176Z,10.17
2018-11-11T09:24:42.500Z,10.30
2018-11-11T09:27:14.602Z,9.80
2018-11-11T09:29:46.790Z,9.43
2018-11-11T09:32:21.467Z,9.20
2018-11-11T09:34:54.682Z,9.93
2018-11-11T09:37:27.331Z,9.33
2018-11-11T09:39:59.595Z,9.60
2018-11-11T09:42:31.564Z,9.50
2018-11-11T09:45:03.783Z,9.50
2018-11-11T09:47:36.069Z,8.50
2018-11-11T09:50:10.085Z,8.23
2018-11-11T09:52:42.151Z,8.27
2018-11-11T09:55:14.631Z,8.83
2018-11-11T09:57:46.627Z,8.10
2018-11-11T10:00:20.612Z,8.63
2018-11-11T10:03:01.792Z,7.23
2018-11-11T10:07:42.216Z,7.30
2018-11-11T10:10:20.640Z,7.70
2018-11-11T10:12:58.425Z,7.97
2018-11-11T10:15:40.334Z,7.77
2018-11-11T10:18:17.678Z,6.80
2018-11-11T10:21:00.299Z,6.40
2018-11-11T10:23:43.260Z,6.50
2018-11-11T10:26:23.718Z,6.43
2018-11-11T10:29:07.149Z,6.53
2018-11-11T10:32:12.080Z,6.93
2018-11-11T10:35:47.935Z,5.53
2018-11-11T10:38:27.598Z,5.60
2018-11-11T10:41:06.105Z,6.43
2018-11-11T10:43:46.116Z,5.13
2018-11-11T10:46:26.313Z,5.93
2018-11-11T10:49:03.111Z,6.17
2018-11-11T10:51:36.029Z,5.30
2018-11-11T10:54:08.714Z,5.13
2018-11-11T10:56:40.858Z,5.10
2018-11-11T10:59:12.794Z,4.60
2018-11-11T11:01:50.357Z,5.40
2018-11-11T11:04:23.473Z,5.90
2018-11-11T11:07:01.061Z,4.63
2018-11-11T11:09:33.047Z,5.20
2018-11-11T11:12:05.255Z,5.63
2018-11-11T11:14:41.549Z,4.43
2018-11-11T11:17:16.788Z,4.93
2018-11-11T11:20:01.532Z,4.10
2018-11-11T11:22:42.116Z,4.77
2018-11-11T11:25:15.821Z,3.93
2018-11-11T11:27:49.054Z,4.23
2018-11-11T11:30:21.197Z,3.40
2018-11-11T11:32:53.506Z,3.47
2018-11-11T11:35:25.634Z,4.20
2018-11-11T11:37:57.597Z,3.20
2018-11-11T11:40:29.899Z,3.27
2018-11-11T11:43:02.196Z,4.03
2018-11-11T11:45:34.484Z,3.80
2018-11-11T11:48:07.672Z,3.63
2018-11-11T11:50:40.111Z,3.80
2018-11-11T11:53:11.998Z,2.93
2018-11-11T11:55:44.114Z,3.00
2018-11-11T11:58:28.886Z,3.20
2018-11-11T12:01:01.298Z,3.27
2018-11-11T12:03:33.271Z,2.90
2018-11-11T12:06:05.322Z,3.90
2018-11-11T12:08:37.194Z,3.57
2018-11-11T12:11:09.133Z,3.53
2018-11-11T12:13:41.103Z,4.03
2018-11-11T12:16:13.103Z,2.53
2018-11-11T12:18:45.213Z,3.40
2018-11-11T12:21:17.338Z,2.47
2018-11-11T12:23:49.863Z,3.10
2018-11-11T12:26:21.715Z,2.93
2018-11-11T12:28:54.702Z,2.60
2018-11-11T12:31:28.698Z,1.90
2018-11-11T12:34:02.468Z,3.03
2018-11-11T12:36:34.770Z,3.13
2018-11-11T12:39:09.171Z,3.00
2018-11-11T12:41:41.156Z,2.43
2018-11-11T12:44:13.904Z,2.47
2018-11-11T12:46:45.790Z,2.40
2018-11-11T12:49:17.995Z,2.70
2018-11-11T12:51:50.387Z,2.63
2018-11-11T12:54:22.875Z,2.43
2018-11-11T12:56:57.065Z,2.50
2018-11-11T12:59:28.833Z,2.07
2018-11-11T13:02:01.088Z,2.50
2018-11-11T13:04:33.325Z,1.63
2018-11-11T13:07:05.562Z,3.33
2018-11-11T13:09:38.032Z,1.93
2018-11-11T13:12:10.335Z,2.10
2018-11-11T13:14:42.350Z,1.60
2018-11-11T13:17:14.785Z,1.90
2018-11-11T13:19:46.810Z,1.63
2018-11-11T13:22:19.037Z,1.50
2018-11-11T13:24:50.989Z,1.80
2018-11-11T13:27:23.422Z,2.07
2018-11-11T13:29:56.625Z,1.70
2018-11-11T13:32:28.427Z,2.33
2018-11-11T13:35:00.338Z,2.40
2018-11-11T13:37:32.569Z,1.80
2018-11-11T13:40:04.925Z,1.93
2018-11-11T13:42:37.101Z,2.07
2018-11-11T13:45:12.479Z,2.33
2018-11-11T13:47:46.484Z,2.00
2018-11-11T13:50:19.817Z,2.10
2018-11-11T13:52:52.130Z,1.87
2018-11-11T13:55:24.336Z,2.27
2018-11-11T13:57:58.960Z,2.07
2018-11-11T14:00:31.109Z,2.33
2018-11-11T14:03:03.065Z,2.03
2018-11-11T14:05:35.055Z,2.20
2018-11-11T14:08:07.177Z,2.10
2018-11-11T14:10:39.886Z,2.70
2018-11-11T14:13:12.036Z,2.20
2018-11-11T14:15:44.151Z,2.03
2018-11-11T14:18:16.315Z,2.57
2018-11-11T14:20:49.184Z,2.40
2018-11-11T14:23:21.455Z,2.40
2018-11-11T14:25:53.751Z,1.80
2018-11-11T14:28:25.747Z,2.20
2018-11-11T14:30:57.552Z,2.80
2018-11-11T14:33:29.687Z,2.20
2018-11-11T14:36:02.319Z,2.33
2018-11-11T14:38:34.736Z,2.50
2018-11-11T14:41:07.464Z,2.67
2018-11-11T14:43:39.450Z,2.00
2018-11-11T14:46:11.509Z,2.23
2018-11-11T14:48:43.543Z,2.70
2018-11-11T14:51:16.415Z,2.97
2018-11-11T14:53:49.408Z,2.30
2018-11-11T14:56:21.630Z,2.77
2018-11-11T14:58:53.817Z,2.50
2018-11-11T15:01:25.744Z,2.30
2018-11-11T15:03:57.743Z,2.93
2018-11-11T15:06:29.698Z,3.17
2018-11-11T15:09:01.593Z,2.77
2018-11-11T15:11:33.777Z,3.03
2018-11-11T15:14:05.981Z,3.23
2018-11-11T15:16:38.280Z,2.50
2018-11-11T15:19:10.702Z,4.10
2018-11-11T15:21:42.756Z,2.73
2018-11-11T15:24:15.641Z,2.10
2018-11-11T15:26:48.584Z,3.00
2018-11-11T15:29:20.742Z,2.87
2018-11-11T15:31:52.888Z,2.90
2018-11-11T15:34:24.969Z,2.67
2018-11-11T15:36:56.905Z,2.90
2018-11-11T15:39:28.901Z,3.23
2018-11-11T15:42:01.807Z,2.90
2018-11-11T15:44:34.686Z,2.73
2018-11-11T15:47:06.894Z,2.70
2018-11-11T15:49:38.985Z,3.10
2018-11-11T15:52:11.210Z,2.97
2018-11-11T15:54:43.198Z,3.00
2018-11-11T15:57:15.342Z,3.13
2018-11-11T15:59:47.271Z,2.90
2018-11-11T16:02:19.308Z,3.07
2018-11-11T16:04:51.142Z,2.83
2018-11-11T16:07:23.074Z,3.27
2018-11-11T16:09:55.022Z,2.73
2018-11-11T16:12:27.080Z,3.23
2018-11-11T16:14:59.263Z,2.90
2018-11-11T16:21:06.043Z,3.43
2018-11-11T16:23:38.384Z,3.77
2018-11-11T16:26:10.922Z,3.07
2018-11-11T16:28:43.304Z,3.37
2018-11-11T16:31:16.056Z,3.60
2018-11-11T16:33:48.169Z,3.70
2018-11-11T16:36:20.713Z,3.53
2018-11-11T16:38:54.086Z,3.70
2018-11-11T16:41:26.256Z,3.40
2018-11-11T16:43:58.357Z,3.57
2018-11-11T16:46:30.829Z,4.33
2018-11-11T16:49:04.373Z,3.67
2018-11-11T16:51:37.838Z,4.00
2018-11-11T16:54:10.753Z,4.10
2018-11-11T16:56:47.300Z,3.80
2018-11-11T16:59:20.622Z,4.07
2018-11-11T17:01:53.852Z,3.93
2018-11-11T17:04:26.162Z,4.13
2018-11-11T17:06:58.522Z,3.63
2018-11-11T17:09:31.276Z,3.80
2018-11-11T17:12:03.423Z,3.83
2018-11-11T17:14:35.776Z,3.70
2018-11-11T17:17:08.166Z,3.60
2018-11-11T17:19:41.633Z,4.03
2018-11-11T17:22:14.656Z,4.40
2018-11-11T17:24:47.165Z,4.27
2018-11-11T17:27:19.377Z,4.40
2018-11-11T17:29:51.762Z,4.30
2018-11-11T17:32:24.012Z,4.47
2018-11-11T17:34:56.184Z,5.40
2018-11-11T17:37:31.315Z,4.17
2018-11-11T17:40:03.646Z,5.00
2018-11-11T17:42:38.411Z,4.97
2018-11-11T17:45:11.454Z,4.90
2018-11-11T17:47:44.364Z,4.97
2018-11-11T17:50:20.682Z,4.80
2018-11-11T17:52:53.347Z,4.33
2018-11-11T17:55:26.523Z,4.43
2018-11-11T17:57:58.940Z,4.47
2018-11-11T18:00:32.092Z,4.50
2018-11-11T18:03:04.796Z,4.40
2018-11-11T18:05:37.418Z,4.40
2018-11-11T18:08:09.670Z,4.50
2018-11-11T18:10:42.463Z,4.20
2018-11-11T18:13:15.618Z,4.80
2018-11-11T18:15:48.333Z,4.60
2018-11-11T18:18:20.403Z,4.47
2018-11-11T18:20:52.897Z,4.87
2018-11-11T18:23:25.233Z,4.63
2018-11-11T18:25:57.862Z,5.70
2018-11-11T18:28:31.178Z,4.40
2018-11-11T18:31:04.009Z,4.70
2018-11-11T18:33:36.068Z,4.47
2018-11-11T18:36:08.308Z,4.47
2018-11-11T18:38:40.727Z,3.73
2018-11-11T18:41:13.606Z,4.20
2018-11-11T18:43:45.655Z,3.80
2018-11-11T18:46:19.699Z,5.27
2018-11-11T18:48:51.761Z,4.50
2018-11-11T18:51:24.736Z,4.03
2018-11-11T18:53:57.126Z,4.53
2018-11-11T18:56:29.408Z,4.40
2018-11-11T18:59:02.076Z,4.20
2018-11-11T19:01:34.439Z,3.90
2018-11-11T19:04:06.918Z,3.90
2018-11-11T19:06:40.045Z,3.97
2018-11-11T19:09:14.420Z,3.97
2018-11-11T19:11:46.978Z,4.10
2018-11-11T19:14:19.886Z,3.27
2018-11-11T19:16:54.700Z,3.80
2018-11-11T19:19:28.111Z,3.70
2018-11-11T19:22:01.160Z,3.80
2018-11-11T19:24:33.543Z,3.43
2018-11-11T19:27:05.942Z,4.27
2018-11-11T19:29:38.464Z,3.90
2018-11-11T19:32:10.664Z,3.63
2018-11-11T19:34:43.865Z,3.70
2018-11-11T19:37:17.973Z,3.37
2018-11-11T19:39:50.245Z,3.33
2018-11-11T19:42:22.898Z,3.73
2018-11-11T19:44:55.006Z,3.27
2018-11-11T19:47:27.681Z,3.63
2018-11-11T19:50:01.193Z,2.57
2018-11-11T19:52:33.765Z,3.17
2018-11-11T19:55:07.134Z,2.73
2018-11-11T19:57:39.874Z,2.70
2018-11-11T20:00:15.007Z,2.20
2018-11-11T20:02:48.860Z,2.43
2018-11-11T20:05:22.697Z,2.50
2018-11-11T20:07:57.253Z,2.10
2018-11-11T20:10:31.035Z,1.57
2018-11-11T20:13:03.792Z,2.33
2018-11-11T20:15:36.466Z,1.80
2018-11-11T20:18:08.465Z,1.80
2018-11-11T20:20:43.065Z,2.20
2018-11-11T20:23:15.680Z,2.27
2018-11-11T20:25:47.991Z,1.70
2018-11-11T20:28:20.575Z,1.80
2018-11-11T20:30:52.752Z,1.77
2018-11-11T20:33:25.310Z,2.23
2018-11-11T20:35:57.408Z,2.20
2018-11-11T20:38:29.852Z,1.70
2018-11-11T20:41:01.817Z,1.90
2018-11-11T20:43:35.046Z,1.73
2018-11-11T20:46:08.355Z,1.80
2018-11-11T20:48:40.478Z,1.70
2018-11-11T20:51:12.859Z,1.87
2018-11-11T20:53:45.051Z,1.50
2018-11-11T20:56:17.264Z,1.87
2018-11-11T20:58:50.553Z,2.40
2018-11-11T21:01:23.913Z,2.10
2018-11-11T21:03:57.656Z,2.07
2018-11-11T21:06:30.957Z,2.00
2018-11-11T21:09:04.042Z,2.20
2018-11-11T21:11:37.231Z,2.33
2018-11-11T21:14:10.573Z,2.87
2018-11-11T21:16:42.678Z,3.10
2018-11-11T21:19:16.134Z,2.87
2018-11-11T21:21:49.489Z,2.87
2018-11-11T21:24:21.553Z,3.50
2018-11-11T21:26:53.827Z,2.73
2018-11-11T21:29:26.110Z,3.40
2018-11-11T21:31:58.597Z,3.43
2018-11-11T21:34:31.160Z,4.33
2018-11-11T21:37:03.930Z,4.10
2018-11-11T21:39:36.516Z,4.00
2018-11-11T21:42:08.476Z,4.50
2018-11-11T21:44:40.520Z,4.60
2018-11-11T21:47:13.381Z,5.37
2018-11-11T21:49:45.587Z,4.67
2018-11-11T21:52:17.698Z,4.77
2018-11-11T21:54:49.858Z,4.70
2018-11-11T21:57:21.938Z,6.00
2018-11-11T21:59:53.945Z,4.97
2018-11-11T22:02:26.046Z,6.83
2018-11-11T22:04:58.869Z,6.27
2018-11-11T22:07:31.730Z,6.87
2018-11-11T22:10:04.023Z,7.50
2018-11-11T22:12:36.020Z,6.43
2018-11-11T22:15:09.364Z,6.00
2018-11-11T22:17:42.233Z,6.50
2018-11-11T22:20:14.284Z,6.90
2018-11-11T22:22:46.487Z,7.03
2018-11-11T22:25:18.607Z,5.30
2018-11-11T22:27:50.593Z,6.67
2018-11-11T22:30:22.599Z,6.90
2018-11-11T22:32:54.717Z,7.07
2018-11-11T22:35:26.525Z,6.07
2018-11-11T22:37:58.552Z,6.80
2018-11-11T22:40:30.487Z,6.50
2018-11-11T22:43:02.739Z,6.70
2018-11-11T22:45:34.505Z,5.97
2018-11-11T22:48:07.389Z,6.60
2018-11-11T22:50:39.702Z,6.13
2018-11-11T22:53:11.985Z,6.43
2018-11-11T22:55:44.165Z,5.87
2018-11-11T22:58:16.116Z,6.13
2018-11-11T23:00:53.054Z,6.33
2018-11-11T23:03:25.267Z,5.73
2018-11-11T23:05:57.448Z,6.23
2018-11-11T23:08:30.273Z,5.63
2018-11-11T23:11:02.120Z,6.40
2018-11-11T23:13:33.843Z,6.00
2018-11-11T23:16:06.152Z,5.87
2018-11-11T23:18:38.992Z,6.10
2018-11-11T23:21:11.452Z,6.10
2018-11-11T23:23:44.803Z,7.10
2018-11-11T23:26:17.258Z,6.50
2018-11-11T23:28:50.372Z,6.50
2018-11-11T23:31:23.153Z,5.70
2018-11-11T23:33:55.577Z,5.63
2018-11-11T23:36:27.723Z,6.90
2018-11-11T23:39:00.617Z,6.20
2018-11-11T23:41:35.197Z,6.13
2018-11-11T23:44:08.059Z,5.47
2018-11-11T23:46:40.718Z,6.80
2018-11-11T23:49:13.035Z,5.70
2018-11-11T23:51:45.820Z,6.17
2018-11-11T23:54:18.101Z,6.10
2018-11-11T23:56:50.718Z,6.07
2018-11-11T23:59:22.997Z,6.30
